Time;durP1;ratioP1;P1;durP2;ratioP2;P2;SDS_P1;SDS_P2;PMS_P1;PMS_P2;Temp;Humidity;BMP_temperature;BMP_pressure;BME280_temperature;BME280_humidity;BME280_pressure;Samples;Min_cycle;Max_cycle;Signal;HPM_P1;HPM_P2
2022/08/11 00:02:34;;;;;;;;;9.00;8.25;;;;;28.03;22.31;101368.72;5076759;28;45325;-60
2022/08/11 00:05:12;;;;;;;;;11.00;11.00;;;;;27.98;22.14;101357.41;5060781;28;45389;-60
2022/08/11 00:07:50;;;;;;;;;10.25;10.25;;;;;27.98;22.67;101372.75;5066986;28;45344;-60
2022/08/11 00:10:18;;;;;;;;;8.75;7.25;;;;;27.92;22.08;101363.28;5079729;28;45264;-59
2022/08/11 00:12:54;;;;;;;;;10.50;10.00;;;;;27.88;22.49;101365.34;5081061;28;45322;-60
2022/08/11 00:15:21;;;;;;;;;11.25;11.25;;;;;27.83;22.45;101358.63;5080908;28;45329;-59
2022/08/11 00:17:47;;;;;;;;;10.00;10.00;;;;;27.84;22.51;101366.59;5080556;28;45504;-59
2022/08/11 00:20:15;;;;;;;;;8.50;8.50;;;;;27.80;22.39;101365.13;5060316;28;45349;-59
2022/08/11 00:22:42;;;;;;;;;11.75;11.75;;;;;27.77;22.45;101359.94;5073086;28;45244;-59
2022/08/11 00:25:18;;;;;;;;;11.00;9.50;;;;;27.72;22.27;101365.72;5080745;28;45339;-59
2022/08/11 00:27:45;;;;;;;;;11.00;10.00;;;;;27.70;23.13;101366.81;5080706;28;45292;-60
2022/08/11 00:30:12;;;;;;;;;9.50;9.00;;;;;27.65;22.89;101360.91;5080692;27;45434;-59
2022/08/11 00:32:41;;;;;;;;;10.00;9.00;;;;;27.62;22.86;101366.53;5080711;28;45268;-60
2022/08/11 00:35:10;;;;;;;;;10.25;10.25;;;;;27.57;22.63;101362.34;5080711;28;45239;-59
2022/08/11 00:37:37;;;;;;;;;11.75;11.75;;;;;27.53;22.60;101357.31;5080509;28;46225;-59
2022/08/11 00:40:08;;;;;;;;;8.00;8.00;;;;;27.48;23.11;101364.88;5080835;28;45248;-60
2022/08/11 00:42:42;;;;;;;;;9.00;8.25;;;;;27.45;23.29;101363.28;5065828;28;45475;-59
2022/08/11 00:45:52;;;;;;;;;13.00;11.25;;;;;27.35;23.11;101364.94;5080581;28;45241;-59
2022/08/11 00:48:56;;;;;;;;;9.25;9.25;;;;;27.36;22.96;101370.22;5008017;28;46347;-59
2022/08/11 00:51:30;;;;;;;;;9.00;8.25;;;;;27.31;23.14;101366.13;5013841;28;45304;-59
2022/08/11 00:54:15;;;;;;;;;10.75;10.75;;;;;27.24;22.82;101363.03;5048698;28;45439;-59
2022/08/11 00:57:08;;;;;;;;;9.00;9.00;;;;;27.20;23.16;101357.00;5060222;28;45323;-59
2022/08/11 00:59:57;;;;;;;;;9.25;9.00;;;;;27.16;23.38;101366.31;5068915;28;45512;-59
2022/08/11 01:02:47;;;;;;;;;9.25;9.25;;;;;27.11;23.36;101363.09;5074374;28;45466;-59
2022/08/11 01:05:24;;;;;;;;;10.50;10.50;;;;;27.08;23.00;101361.50;5060169;28;45203;-59
2022/08/11 01:08:17;;;;;;;;;9.75;9.75;;;;;27.01;23.49;101360.22;5059479;28;45323;-59
2022/08/11 01:10:48;;;;;;;;;9.00;9.00;;;;;26.99;23.05;101364.00;5065892;28;45355;-59
2022/08/11 01:13:29;;;;;;;;;10.50;10.50;;;;;26.93;23.33;101360.78;5080035;28;45240;-59
2022/08/11 01:16:32;;;;;;;;;9.50;9.50;;;;;26.90;23.56;101360.16;5080142;28;45365;-59
2022/08/11 01:19:41;;;;;;;;;8.00;8.00;;;;;26.85;23.12;101359.63;5079997;28;45219;-59
2022/08/11 01:22:43;;;;;;;;;15.75;13.00;;;;;26.81;23.68;101360.84;5079921;27;45260;-59
2022/08/11 01:25:39;;;;;;;;;8.50;8.25;;;;;26.76;23.71;101356.63;5079892;28;45456;-59
2022/08/11 01:28:14;;;;;;;;;12.00;10.00;;;;;26.74;23.77;101349.63;5079994;27;45307;-59
2022/08/11 01:31:15;;;;;;;;;9.50;8.25;;;;;26.71;23.40;101347.16;5067161;28;45535;-59
2022/08/11 01:34:14;;;;;;;;;10.00;9.50;;;;;26.68;23.29;101352.75;5059460;28;45315;-59
2022/08/11 01:36:58;;;;;;;;;9.00;9.00;;;;;26.65;23.87;101351.13;5066667;28;45662;-59
2022/08/11 01:39:35;;;;;;;;;9.00;9.00;;;;;26.63;23.43;101349.53;5065080;28;45416;-59
2022/08/11 01:45:35;;;;;;;;;8.00;8.00;;;;;26.56;23.86;101355.34;5066371;28;45396;-59
2022/08/11 01:48:19;;;;;;;;;10.00;10.00;;;;;26.53;24.02;101354.75;5071163;28;45405;-59
2022/08/11 01:51:03;;;;;;;;;9.00;9.00;;;;;26.50;23.88;101358.50;5067058;28;45508;-59
2022/08/11 01:53:34;;;;;;;;;8.75;8.00;;;;;26.48;24.00;101355.06;5079717;28;45464;-59
2022/08/11 01:56:37;;;;;;;;;10.00;8.50;;;;;26.47;24.11;101363.28;5079529;28;46336;-59
2022/08/11 01:59:27;;;;;;;;;8.75;8.75;;;;;26.42;23.94;101371.69;5079462;28;45702;-59
2022/08/11 02:02:01;;;;;;;;;11.00;11.00;;;;;26.39;24.12;101361.09;5077314;28;45276;-59
2022/08/11 02:04:51;;;;;;;;;7.75;7.75;;;;;26.36;24.25;101359.50;5063045;28;45271;-59
2022/08/11 02:07:34;;;;;;;;;11.00;9.50;;;;;26.33;23.70;101358.88;5059029;28;46294;-59
2022/08/11 02:10:00;;;;;;;;;10.50;9.75;;;;;26.30;23.70;101357.22;5059129;28;45280;-59
2022/08/11 02:12:50;;;;;;;;;11.50;10.00;;;;;26.27;24.15;101350.22;5059290;28;45446;-59
2022/08/11 02:15:25;;;;;;;;;10.75;10.00;;;;;26.24;24.32;101352.31;5059196;28;45288;-59
2022/08/11 02:18:16;;;;;;;;;11.00;10.00;;;;;26.21;23.87;101358.78;5058716;28;45368;-59
2022/08/11 02:23:46;;;;;;;;;10.00;10.00;;;;;26.15;23.85;101353.81;5062588;28;45386;-59
2022/08/11 02:26:22;;;;;;;;;8.50;8.50;;;;;26.13;24.17;101349.53;5062415;28;45321;-59
2022/08/11 02:28:53;;;;;;;;;11.50;10.00;;;;;26.11;24.01;101349.59;5062345;28;46047;-59
2022/08/11 02:34:14;;;;;;;;;11.00;11.00;;;;;26.05;24.61;101347.31;5062294;28;45295;-59
2022/08/11 02:37:14;;;;;;;;;9.00;9.00;;;;;26.01;24.71;101345.81;5062338;28;45273;-59
2022/08/11 02:40:02;;;;;;;;;10.25;10.25;;;;;25.98;24.85;101341.50;5075714;28;47124;-59
2022/08/11 02:42:45;;;;;;;;;10.00;10.00;;;;;25.94;24.82;101348.94;5062076;28;45295;-59
2022/08/11 02:45:11;;;;;;;;;10.25;9.00;;;;;25.92;24.82;101345.50;5062300;28;45529;-60
2022/08/11 02:50:59;;;;;;;;;11.00;11.00;;;;;25.85;24.81;101343.31;5063909;28;45407;-59
2022/08/11 02:53:36;;;;;;;;;10.50;10.50;;;;;25.81;24.37;101342.69;5082396;28;45255;-61
2022/08/11 02:56:26;;;;;;;;;8.25;8.25;;;;;25.79;24.57;101341.94;5082387;28;45291;-59
2022/08/11 03:01:58;;;;;;;;;10.75;9.50;;;;;25.76;24.46;101339.44;5081790;28;45446;-59
2022/08/11 03:04:36;;;;;;;;;9.00;9.00;;;;;25.74;24.65;101346.78;5061746;28;45235;-59
2022/08/11 03:07:13;;;;;;;;;10.00;9.50;;;;;25.63;24.93;101321.47;5060380;28;45186;-59
2022/08/11 03:09:46;;;;;;;;;10.50;10.00;;;;;25.67;24.96;101342.78;5061726;28;45323;-60
2022/08/11 03:18:05;;;;;;;;;11.75;10.00;;;;;25.56;24.33;101349.75;5061437;28;45266;-59
2022/08/11 03:20:44;;;;;;;;;10.00;8.25;;;;;25.53;24.68;101341.88;5063759;28;45522;-59
2022/08/11 03:23:36;;;;;;;;;8.75;8.75;;;;;25.50;25.02;101347.47;5060351;28;45968;-59
2022/08/11 03:26:08;;;;;;;;;10.00;9.00;;;;;25.47;24.94;101344.97;5060068;28;45390;-59
2022/08/11 03:28:50;;;;;;;;;9.00;9.00;;;;;25.42;25.07;101341.75;5061511;28;45289;-59
2022/08/11 03:31:15;;;;;;;;;10.00;10.00;;;;;25.39;24.93;101334.75;5060822;28;45588;-60
2022/08/11 03:34:03;;;;;;;;;10.50;9.50;;;;;25.35;25.13;101332.34;5061230;28;46243;-59
2022/08/11 03:37:04;;;;;;;;;8.50;8.50;;;;;25.34;24.78;101342.22;5061509;28;45506;-59
2022/08/11 03:40:03;;;;;;;;;7.25;7.25;;;;;25.30;25.23;101338.88;5061672;28;45506;-59
2022/08/11 03:42:40;;;;;;;;;10.50;10.50;;;;;25.27;24.97;101341.78;5061209;28;45363;-59
2022/08/11 03:45:18;;;;;;;;;10.00;10.00;;;;;25.24;24.90;101336.59;5060974;28;45451;-59
2022/08/11 03:48:01;;;;;;;;;9.50;7.50;;;;;25.21;25.46;101344.88;5060798;28;45848;-59
2022/08/11 03:50:41;;;;;;;;;9.00;9.00;;;;;25.19;25.46;101348.66;5061198;28;45271;-59
2022/08/11 03:53:30;;;;;;;;;11.00;10.25;;;;;25.15;25.47;101335.38;5081460;28;45434;-59
2022/08/11 03:56:23;;;;;;;;;9.00;9.00;;;;;25.12;25.12;101342.81;5081303;28;45271;-59
2022/08/11 03:59:20;;;;;;;;;9.00;9.00;;;;;25.09;25.22;101337.63;5081190;27;45418;-59
2022/08/11 04:02:21;;;;;;;;;12.00;11.00;;;;;25.06;25.57;101332.47;5081172;28;45350;-59
2022/08/11 04:04:59;;;;;;;;;9.50;9.50;;;;;25.01;25.34;101330.06;5060860;28;45248;-59
2022/08/11 04:07:42;;;;;;;;;9.75;9.75;;;;;24.98;25.42;101332.94;5060534;28;45379;-59
2022/08/11 04:10:23;;;;;;;;;9.25;9.25;;;;;24.94;25.73;101331.44;5060790;28;45216;-59
2022/08/11 04:13:11;;;;;;;;;9.25;9.25;;;;;24.91;25.65;101335.19;5061043;28;45323;-58
2022/08/11 04:16:02;;;;;;;;;11.00;11.00;;;;;24.88;25.58;101338.09;5067735;28;45233;-58
2022/08/11 04:19:02;;;;;;;;;13.00;11.50;;;;;24.85;25.74;101343.66;5080575;28;45317;-58
2022/08/11 04:21:34;;;;;;;;;10.75;9.75;;;;;24.81;25.35;101345.69;5065796;28;45968;-58
2022/08/11 04:24:05;;;;;;;;;9.00;9.00;;;;;24.79;25.61;101339.56;5081068;28;45247;-59
2022/08/11 04:26:55;;;;;;;;;11.00;9.75;;;;;24.76;25.68;101341.56;5080893;28;45286;-58
2022/08/11 04:29:42;;;;;;;;;10.00;9.50;;;;;24.72;25.59;101340.91;5079662;28;45302;-59
2022/08/11 04:32:26;;;;;;;;;9.00;9.00;;;;;24.69;25.84;101341.13;5080704;28;45243;-58
2022/08/11 04:35:43;;;;;;;;;9.00;9.00;;;;;24.64;25.69;101349.47;5080547;28;45244;-59
2022/08/11 04:38:45;;;;;;;;;8.50;8.50;;;;;24.63;25.82;101342.34;5076616;28;45342;-59
2022/08/11 04:41:31;;;;;;;;;9.25;9.00;;;;;24.60;25.97;101347.91;5079677;27;46188;-59
2022/08/11 04:44:23;;;;;;;;;12.25;11.25;;;;;24.58;25.63;101340.88;5080599;28;45246;-59
2022/08/11 04:46:54;;;;;;;;;9.75;8.75;;;;;24.57;25.53;101344.56;5069701;28;45358;-59
2022/08/11 05:01:42;;;;;;;;;10.50;10.50;;;;;24.44;26.00;101341.75;5080132;28;45406;-59
2022/08/11 05:07:24;;;;;;;;;8.25;8.25;;;;;24.40;26.03;101354.56;5060066;28;45410;-59
2022/08/11 05:10:16;;;;;;;;;11.00;11.00;;;;;24.37;25.70;101346.69;5060007;28;45172;-59
2022/08/11 05:27:09;;;;;;;;;8.00;8.00;;;;;24.38;26.11;101350.22;5069991;28;45256;-59
2022/08/11 05:35:42;;;;;;;;;10.25;10.00;;;;;24.26;26.10;101382.25;5080120;28;45287;-59
2022/08/11 05:58:02;;;;;;;;;11.75;10.00;;;;;24.26;26.72;101387.63;5083044;28;45437;-59
2022/08/11 06:00:29;;;;;;;;;11.50;11.50;;;;;24.25;26.58;101383.22;5082796;28;46298;-59
2022/08/11 06:03:02;;;;;;;;;11.00;10.25;;;;;24.29;26.31;101391.97;5072919;28;45366;-60
2022/08/11 06:05:36;;;;;;;;;11.00;10.00;;;;;24.32;26.22;101395.28;5062894;28;45487;-60
2022/08/11 06:08:04;;;;;;;;;9.25;9.25;;;;;24.32;26.42;101379.19;5061396;28;45427;-59
2022/08/11 06:10:33;;;;;;;;;11.50;11.50;;;;;24.33;26.53;101383.59;5062454;28;46311;-59
2022/08/11 06:12:59;;;;;;;;;8.50;8.50;;;;;24.32;26.75;101376.50;5062777;28;45493;-59
2022/08/11 06:15:26;;;;;;;;;9.00;8.75;;;;;24.34;26.47;101374.59;5061584;28;45380;-59
2022/08/11 06:17:54;;;;;;;;;13.00;9.75;;;;;24.38;26.48;101380.63;5062257;28;45496;-59
2022/08/11 06:20:22;;;;;;;;;11.25;9.00;;;;;24.41;26.32;101383.13;5062363;28;45407;-59
2022/08/11 06:23:00;;;;;;;;;8.50;8.50;;;;;24.42;26.81;101392.91;5044561;28;45266;-59
2022/08/11 06:25:34;;;;;;;;;7.75;7.75;;;;;24.45;26.36;101392.72;5062603;28;45517;-60
2022/08/11 06:28:02;;;;;;;;;13.75;13.00;;;;;24.47;26.57;101389.94;5062316;28;45527;-59
2022/08/11 06:30:41;;;;;;;;;9.25;9.00;;;;;24.49;26.54;101391.56;5062610;28;46071;-60
2022/08/11 06:33:20;;;;;;;;;10.75;10.75;;;;;24.51;26.59;101388.78;5061918;28;45330;-60
2022/08/11 06:36:01;;;;;;;;;6.75;6.75;;;;;24.54;26.71;101396.66;5061206;28;45344;-60
2022/08/11 06:38:55;;;;;;;;;10.25;8.25;;;;;24.57;26.63;101395.59;5070177;28;45323;-60
2022/08/11 06:41:31;;;;;;;;;11.50;10.75;;;;;24.59;26.60;101405.28;5082106;28;46048;-60
2022/08/11 06:44:15;;;;;;;;;11.00;10.75;;;;;24.63;26.61;101396.06;5081415;28;45359;-60
2022/08/11 06:46:42;;;;;;;;;13.00;9.75;;;;;24.67;26.70;101397.63;5082412;28;45286;-60
2022/08/11 06:52:00;;;;;;;;;10.25;10.00;;;;;24.75;26.43;101394.44;5074250;28;45540;-59
2022/08/11 06:54:30;;;;;;;;;10.25;9.00;;;;;24.77;26.61;101395.22;5082125;28;45248;-60
2022/08/11 07:02:35;;;;;;;;;10.25;9.75;;;;;24.92;26.47;101398.75;5076016;28;45439;-60
2022/08/11 07:05:13;;;;;;;;;9.00;9.00;;;;;24.94;26.61;101402.22;5061078;28;45339;-60
2022/08/11 07:17:25;;;;;;;;;9.00;8.00;;;;;25.20;26.70;101406.84;5081689;28;45374;-60
2022/08/11 07:28:54;;;;;;;;;12.75;10.75;;;;;25.29;26.64;101400.84;5081974;28;45468;-60
2022/08/11 07:31:12;;;;;;;;;8.50;8.50;;;;;25.39;26.62;101395.75;5081498;28;45468;-60
2022/08/11 07:33:50;;;;;;;;;10.25;9.75;;;;;25.50;26.73;101406.66;5081569;28;45298;-60
2022/08/11 07:36:17;;;;;;;;;12.00;10.75;;;;;25.55;26.75;101404.53;5081017;28;46707;-60
2022/08/11 07:38:49;;;;;;;;;13.00;13.00;;;;;25.61;26.13;101403.25;5081469;28;45328;-60
2022/08/11 07:41:17;;;;;;;;;11.25;10.50;;;;;25.66;26.74;101397.53;5081314;28;45356;-60
2022/08/11 07:43:48;;;;;;;;;10.25;10.25;;;;;25.71;26.58;101398.97;5067440;28;45465;-60
2022/08/11 07:54:31;;;;;;;;;12.00;11.00;;;;;25.94;26.01;101394.69;5081454;28;45252;-60
2022/08/11 07:56:57;;;;;;;;;12.75;11.50;;;;;26.01;26.19;101399.66;5079846;28;45431;-60
2022/08/11 08:18:40;;;;;;;;;8.00;8.00;;;;;26.53;26.52;101385.25;5060228;28;45279;-60
2022/08/11 08:21:13;;;;;;;;;10.50;10.50;;;;;26.63;26.03;101390.84;5060616;28;45356;-60
2022/08/11 08:23:42;;;;;;;;;12.00;11.00;;;;;26.70;26.54;101383.16;5067064;28;45454;-60
2022/08/11 08:30:46;;;;;;;;;11.25;10.25;;;;;26.86;25.94;101386.47;5081029;28;45777;-59
2022/08/11 08:31:47;;;;;;;;;11.50;10.25;;;;;26.91;26.57;101384.31;5080750;28;45283;-60
2022/08/11 08:34:15;;;;;;;;;11.75;10.75;;;;;27.03;26.65;101381.69;5080702;28;45248;-60
2022/08/11 08:36:46;;;;;;;;;10.75;9.25;;;;;27.10;26.01;101382.94;5080776;28;45511;-60
2022/08/11 08:39:12;;;;;;;;;8.50;7.75;;;;;27.18;26.55;101380.56;5080542;27;45410;-60
2022/08/11 08:41:39;;;;;;;;;11.50;11.00;;;;;27.28;26.15;101390.66;5080518;28;45224;-59
2022/08/11 08:44:10;;;;;;;;;11.75;10.50;;;;;27.35;26.45;101390.06;5080834;28;45267;-60
2022/08/11 08:46:42;;;;;;;;;11.75;10.50;;;;;27.43;25.97;101385.97;5080617;28;45536;-60
2022/08/11 08:49:13;;;;;;;;;10.00;10.00;;;;;27.51;25.68;101392.50;5080183;28;46290;-60
2022/08/11 08:51:42;;;;;;;;;8.25;8.25;;;;;27.56;26.36;101386.78;5071803;28;45495;-60
2022/08/11 08:54:18;;;;;;;;;6.50;6.50;;;;;27.69;26.41;101392.06;5080619;27;45271;-60
2022/08/11 08:56:45;;;;;;;;;6.75;6.75;;;;;27.77;25.62;101389.63;5079353;28;45414;-60
2022/08/11 08:59:15;;;;;;;;;6.00;6.00;;;;;27.85;25.94;101389.91;5080166;28;47107;-59
2022/08/11 09:01:54;;;;;;;;;5.75;5.75;;;;;27.96;25.54;101394.50;5080076;28;45325;-60
2022/08/11 09:04:20;;;;;;;;;7.00;7.00;;;;;28.06;25.50;101397.34;5060154;28;45616;-60
2022/08/11 09:06:47;;;;;;;;;6.50;6.50;;;;;28.14;25.46;101389.50;5059918;28;45217;-60
2022/08/11 09:09:13;;;;;;;;;5.25;5.25;;;;;28.27;25.56;101399.34;5060099;28;46025;-60
2022/08/11 09:11:52;;;;;;;;;7.75;6.00;;;;;28.36;25.67;101393.19;5058739;28;45340;-60
2022/08/11 09:17:19;;;;;;;;;6.00;6.00;;;;;28.56;25.72;101390.75;5067909;28;45230;-60
2022/08/11 09:19:46;;;;;;;;;8.25;7.50;;;;;28.67;25.40;101390.78;5079930;28;46195;-60
2022/08/11 09:27:41;;;;;;;;;8.00;8.00;;;;;29.02;24.91;101387.88;5080758;28;45338;-60
2022/08/11 09:30:10;;;;;;;;;5.75;5.00;;;;;29.10;25.08;101375.56;5083669;28;46189;-60
2022/08/11 09:32:37;;;;;;;;;7.75;7.75;;;;;29.24;24.82;101385.25;5083220;28;45209;-60
2022/08/11 09:35:04;;;;;;;;;7.25;7.25;;;;;29.34;24.85;101378.09;5083908;28;45172;-60
2022/08/11 09:40:27;;;;;;;;;9.00;5.75;;;;;29.55;24.35;101367.31;5082585;28;45685;-60
2022/08/11 09:45:39;;;;;;;;;7.00;7.00;;;;;29.80;24.26;101367.91;5083634;28;45282;-60
2022/08/11 09:48:06;;;;;;;;;6.25;6.25;;;;;29.92;24.36;101363.31;5074330;28;45431;-60
2022/08/11 09:50:33;;;;;;;;;7.00;6.50;;;;;30.01;24.32;101367.91;5068905;28;46020;-60
2022/08/11 09:53:00;;;;;;;;;8.25;7.00;;;;;30.12;23.98;101362.41;5083289;28;45333;-60
2022/08/11 09:55:25;;;;;;;;;5.75;5.75;;;;;30.21;24.06;101365.31;5083482;28;45369;-60
2022/08/11 10:00:39;;;;;;;;;8.00;8.00;;;;;30.47;23.43;101363.84;5083179;28;45295;-60
2022/08/11 10:03:25;;;;;;;;;6.00;6.00;;;;;30.59;23.10;101364.63;5081385;28;45388;-60
2022/08/11 10:08:46;;;;;;;;;7.00;6.50;;;;;30.84;22.97;101367.81;5083075;28;45460;-60
2022/08/11 10:11:17;;;;;;;;;8.75;7.00;;;;;30.97;23.28;101354.03;5082963;28;45281;-59
2022/08/11 10:16:33;;;;;;;;;9.00;9.00;;;;;31.17;22.61;101357.63;5083093;28;45297;-59
2022/08/11 10:19:01;;;;;;;;;10.25;10.00;;;;;31.31;22.77;101353.63;5082448;28;45452;-59
2022/08/11 10:21:37;;;;;;;;;10.00;9.25;;;;;31.48;22.79;101353.91;5082644;28;46621;-59
2022/08/11 10:26:54;;;;;;;;;8.50;8.00;;;;;31.78;21.71;101361.03;5082973;28;45496;-59
2022/08/11 10:34:57;;;;;;;;;9.00;7.50;;;;;32.27;21.89;101344.63;5082729;28;45264;-59
2022/08/11 10:37:24;;;;;;;;;7.25;7.25;;;;;32.48;21.96;101347.09;5083007;28;45174;-59
2022/08/11 10:39:51;;;;;;;;;8.25;8.25;;;;;32.71;22.23;101330.34;5081439;28;46583;-59
2022/08/11 10:47:55;;;;;;;;;4.75;4.50;;;;;34.07;22.27;101322.00;5034445;28;45289;-59
2022/08/11 10:58:51;;;;;;;;;8.50;8.50;;;;;36.49;21.71;101317.31;5082193;28;45263;-60
2022/08/11 11:01:21;;;;;;;;;9.50;7.25;;;;;37.05;21.56;101322.63;5075252;28;45576;-60
2022/08/11 11:03:51;;;;;;;;;9.00;9.00;;;;;37.55;21.11;101317.59;5065587;27;46126;-60
2022/08/11 11:06:16;;;;;;;;;7.25;7.25;;;;;38.11;21.03;101325.38;5060675;28;45361;-60
2022/08/11 11:08:51;;;;;;;;;9.25;9.25;;;;;38.66;21.26;101325.88;5062113;28;45151;-60
2022/08/11 11:11:19;;;;;;;;;6.75;6.75;;;;;39.23;20.82;101322.50;5061881;28;45441;-60
2022/08/11 11:19:24;;;;;;;;;5.75;5.75;;;;;40.61;20.01;101308.09;5061688;28;45469;-60
2022/08/11 11:21:52;;;;;;;;;6.25;6.25;;;;;40.95;19.64;101303.50;5061641;28;45319;-61
2022/08/11 11:24:41;;;;;;;;;6.75;6.75;;;;;41.31;19.25;101304.16;5060200;28;47354;-61
2022/08/11 11:27:19;;;;;;;;;6.25;6.25;;;;;41.63;18.76;101298.84;5061543;28;45342;-61
2022/08/11 11:29:54;;;;;;;;;8.50;8.50;;;;;42.01;18.99;101301.72;5074109;28;45457;-61
2022/08/11 11:32:32;;;;;;;;;8.00;8.00;;;;;42.35;18.31;101293.31;5067111;28;46053;-61
2022/08/11 11:35:45;;;;;;;;;9.00;8.00;;;;;42.75;17.92;101303.31;5061372;28;45475;-61
2022/08/11 11:38:11;;;;;;;;;6.25;6.25;;;;;43.07;17.84;101283.94;5056342;28;45551;-61
2022/08/11 11:40:39;;;;;;;;;7.75;7.75;;;;;43.32;18.13;101293.09;5061476;28;45346;-61
2022/08/11 11:43:04;;;;;;;;;8.00;8.00;;;;;43.50;17.79;101283.97;5060181;28;45511;-61
2022/08/11 11:45:30;;;;;;;;;7.50;7.50;;;;;43.77;17.24;101299.47;5060058;28;47222;-61
2022/08/11 11:47:58;;;;;;;;;7.75;7.75;;;;;43.93;17.26;101286.97;5060976;28;45439;-61
2022/08/11 11:50:33;;;;;;;;;7.75;7.75;;;;;44.10;16.91;101289.94;5061279;28;45480;-61
2022/08/11 11:53:02;;;;;;;;;9.00;9.00;;;;;44.26;16.59;101296.75;5061222;28;45273;-61
2022/08/11 11:55:29;;;;;;;;;6.00;6.00;;;;;44.32;16.47;101293.06;5061125;28;45267;-61
2022/08/11 12:03:28;;;;;;;;;4.50;3.75;;;;;44.62;15.90;101286.69;5074962;28;45301;-61
2022/08/11 12:05:56;;;;;;;;;8.00;8.00;;;;;44.65;15.79;101269.59;5081323;28;46159;-61
2022/08/11 12:08:23;;;;;;;;;8.25;7.25;;;;;44.69;15.71;101278.25;5081220;28;45430;-61
2022/08/11 12:13:39;;;;;;;;;8.75;7.00;;;;;44.69;15.60;101281.03;5081428;28;45256;-61
2022/08/11 12:13:43;;;;;;;;;8.25;6.25;;;;;44.75;15.68;101272.63;5080953;28;45314;-61
2022/08/11 12:16:11;;;;;;;;;7.75;7.75;;;;;44.73;15.40;101272.06;5067791;28;46657;-61
2022/08/11 12:18:39;;;;;;;;;9.00;9.00;;;;;44.59;15.30;101262.22;5079463;28;45383;-61
2022/08/11 12:21:07;;;;;;;;;8.00;8.00;;;;;44.49;15.06;101268.31;5081113;28;45434;-61
2022/08/11 12:29:06;;;;;;;;;7.50;7.50;;;;;43.84;14.87;101262.34;5081043;28;45186;-61
2022/08/11 12:31:34;;;;;;;;;8.00;8.00;;;;;43.83;15.21;101262.56;5080783;28;45445;-61
2022/08/11 12:34:02;;;;;;;;;7.25;7.00;;;;;43.91;15.06;101255.88;5079328;28;45450;-61
2022/08/11 12:36:32;;;;;;;;;6.00;6.00;;;;;44.14;15.55;101257.94;5060078;28;45582;-61
2022/08/11 12:38:58;;;;;;;;;10.25;9.00;;;;;44.44;15.32;101248.81;5073183;28;45469;-61
2022/08/11 12:47:07;;;;;;;;;8.00;6.25;;;;;45.78;15.31;101240.09;5025060;27;45385;-61
2022/08/11 12:52:27;;;;;;;;;6.50;6.00;;;;;46.72;15.45;101247.19;5076381;28;45294;-61
2022/08/11 12:58:14;;;;;;;;;7.00;7.00;;;;;47.21;14.56;101238.22;5080588;28;45332;-61
2022/08/11 12:58:15;;;;;;;;;6.75;6.75;;;;;47.68;14.46;101226.66;5080337;28;45875;-61
2022/08/11 13:06:12;;;;;;;;;7.25;7.25;;;;;49.00;14.19;101232.16;5080484;28;45374;-61
2022/08/11 13:08:39;;;;;;;;;6.75;6.00;;;;;49.35;14.20;101222.34;5065405;28;46366;-61
2022/08/11 13:13:55;;;;;;;;;8.00;8.00;;;;;50.04;14.20;101219.53;5080426;28;45562;-61
2022/08/11 13:16:22;;;;;;;;;6.75;6.75;;;;;50.38;13.80;101221.81;5080208;28;45359;-61
2022/08/11 13:18:49;;;;;;;;;9.00;9.00;;;;;50.69;13.79;101213.44;5079852;28;46523;-61
2022/08/11 13:21:15;;;;;;;;;7.50;6.75;;;;;51.02;13.46;101226.00;5080187;28;45327;-61
2022/08/11 13:23:42;;;;;;;;;7.50;7.50;;;;;51.37;13.61;101226.16;5080172;28;45250;-61
2022/08/11 13:26:09;;;;;;;;;8.50;7.25;;;;;51.65;13.18;101221.88;5080138;28;45492;-61
2022/08/11 13:28:36;;;;;;;;;6.75;6.75;;;;;51.94;12.91;101223.13;5071871;28;45652;-61
2022/08/11 13:31:14;;;;;;;;;8.75;7.75;;;;;52.14;12.56;101214.63;5073340;28;45538;-61
2022/08/11 13:33:50;;;;;;;;;7.25;6.75;;;;;52.33;12.00;101213.88;5080007;28;45311;-61
2022/08/11 13:36:18;;;;;;;;;7.00;7.00;;;;;52.51;12.16;101212.38;5080026;28;45235;-61
2022/08/11 13:38:44;;;;;;;;;6.50;6.50;;;;;52.61;12.53;101220.69;5068515;28;45552;-61
2022/08/11 13:43:55;;;;;;;;;10.75;9.00;;;;;52.86;11.94;101218.78;5080143;28;45292;-61
2022/08/11 13:46:23;;;;;;;;;8.00;8.00;;;;;52.98;11.95;101202.34;5079737;28;45449;-61
2022/08/11 13:48:50;;;;;;;;;6.50;6.50;;;;;53.11;12.17;101205.56;5079634;28;45364;-61
2022/08/11 13:51:34;;;;;;;;;9.00;9.00;;;;;53.19;11.17;101199.34;5071272;28;46714;-61
2022/08/11 13:54:04;;;;;;;;;8.00;8.00;;;;;53.20;11.19;101195.41;5079930;28;46380;-61
2022/08/11 13:56:31;;;;;;;;;7.00;7.00;;;;;53.20;11.41;101195.41;5079791;28;45513;-61
2022/08/11 13:58:57;;;;;;;;;9.75;9.50;;;;;53.24;10.81;101179.63;5079532;28;45492;-61
2022/08/11 14:01:30;;;;;;;;;7.50;7.50;;;;;53.28;11.79;101186.31;5079338;28;45449;-61
2022/08/11 14:04:10;;;;;;;;;7.00;7.00;;;;;53.35;11.12;101191.56;5060778;27;45366;-61
2022/08/11 14:06:39;;;;;;;;;7.25;7.25;;;;;53.44;11.29;101183.28;5068155;28;45258;-61
2022/08/11 14:09:08;;;;;;;;;8.00;8.00;;;;;53.52;11.23;101173.41;5059292;28;45524;-61
2022/08/11 14:14:23;;;;;;;;;8.75;7.00;;;;;53.60;10.61;101186.75;5060844;28;45402;-62
2022/08/11 14:16:52;;;;;;;;;8.00;8.00;;;;;53.60;11.26;101189.53;5062500;28;45304;-62
2022/08/11 14:19:21;;;;;;;;;9.25;7.25;;;;;53.57;11.12;101178.94;5062509;28;46514;-62
2022/08/11 14:22:05;;;;;;;;;10.00;8.75;;;;;53.54;10.47;101179.53;5062467;28;45423;-61
2022/08/11 14:24:33;;;;;;;;;10.25;9.25;;;;;53.52;10.25;101187.44;5062581;28;45292;-62
2022/08/11 14:26:59;;;;;;;;;8.75;8.00;;;;;53.51;11.36;101172.53;5061599;28;45503;-61
2022/08/11 14:29:26;;;;;;;;;11.00;9.25;;;;;53.53;10.90;101159.06;5062301;28;46061;-61
2022/08/11 14:32:01;;;;;;;;;7.75;7.75;;;;;53.60;11.08;101167.09;5062245;28;45326;-61
2022/08/11 14:34:33;;;;;;;;;7.75;7.75;;;;;53.61;10.75;101161.16;5062403;28;45339;-61
2022/08/11 14:37:01;;;;;;;;;9.75;8.75;;;;;53.66;10.20;101156.63;5062388;28;45243;-61
2022/08/11 14:39:34;;;;;;;;;8.00;8.00;;;;;53.65;10.51;101164.19;5062117;28;47074;-61
2022/08/11 14:47:36;;;;;;;;;7.75;7.50;;;;;53.53;10.37;101146.97;5082080;28;45491;-59
2022/08/11 14:50:03;;;;;;;;;9.00;8.00;;;;;53.49;10.81;101151.53;5075570;28;46301;-58
2022/08/11 14:52:31;;;;;;;;;10.00;8.50;;;;;53.44;10.52;101149.59;5079077;28;45231;-58
2022/08/11 14:57:42;;;;;;;;;6.00;6.00;;;;;53.31;10.82;101131.53;5082172;28;45480;-58
2022/08/11 15:00:14;;;;;;;;;7.50;7.50;;;;;53.26;10.40;101131.63;5082297;28;46416;-61
2022/08/11 15:05:26;;;;;;;;;11.25;9.00;;;;;53.16;9.88;101124.16;5062091;28;45304;-61
2022/08/11 15:07:54;;;;;;;;;9.00;8.00;;;;;53.09;9.90;101129.31;5061930;28;45459;-61
2022/08/11 15:10:21;;;;;;;;;7.50;7.00;;;;;53.00;10.36;101119.88;5061946;28;45357;-61
2022/08/11 15:12:47;;;;;;;;;8.75;8.75;;;;;52.93;10.06;101109.84;5061818;28;45239;-61
2022/08/11 15:18:00;;;;;;;;;8.25;8.25;;;;;52.79;9.95;101115.34;5061557;28;45339;-61
2022/08/11 15:26:07;;;;;;;;;7.25;6.50;;;;;52.41;10.76;101108.72;5061085;28;45321;-61
2022/08/11 15:45:48;;;;;;;;;8.25;7.50;;;;;50.73;10.18;101100.81;5061359;28;45362;-59
2022/08/11 15:48:19;;;;;;;;;9.25;9.25;;;;;50.47;10.43;101088.81;5061205;28;45229;-60
2022/08/11 15:50:53;;;;;;;;;11.25;10.50;;;;;50.22;10.05;101096.09;5069738;28;45454;-59
2022/08/11 15:53:21;;;;;;;;;10.50;10.00;;;;;49.98;10.26;101092.16;5081464;28;47330;-59
2022/08/11 15:55:47;;;;;;;;;9.75;9.00;;;;;49.68;9.99;101089.06;5081434;28;45269;-60
2022/08/11 16:06:57;;;;;;;;;9.75;9.75;;;;;48.24;9.86;101077.19;5061213;28;45312;-60
2022/08/11 16:09:29;;;;;;;;;6.75;6.00;;;;;47.77;9.71;101076.75;5070670;28;45485;-60
2022/08/11 16:11:59;;;;;;;;;9.50;9.50;;;;;47.35;9.86;101080.19;5081151;28;45320;-60
2022/08/11 16:17:14;;;;;;;;;8.25;8.25;;;;;46.51;10.43;101073.75;5080816;28;45399;-59
2022/08/11 16:19:41;;;;;;;;;8.75;8.75;;;;;46.14;9.94;101077.88;5081047;28;45268;-60
2022/08/11 16:22:09;;;;;;;;;10.00;10.00;;;;;45.79;10.39;101072.50;5079221;28;45553;-59